sensor_id;sensor_type;location;lat;lon;timestamp;P1;durP1;ratioP1;P2;durP2;ratioP2
30000;SDS011;16845;48.670;9.000;2024-01-10T00:00:40;38.22;;;20.30;;
30000;SDS011;16845;48.670;9.000;2024-01-10T00:03:06;47.22;;;20.50;;
30000;SDS011;16845;48.670;9.000;2024-01-10T00:05:33;39.28;;;19.88;;
30000;SDS011;16845;48.670;9.000;2024-01-10T00:08:00;42.80;;;20.88;;
30000;SDS011;16845;48.670;9.000;2024-01-10T00:10:27;54.17;;;22.25;;
30000;SDS011;16845;48.670;9.000;2024-01-10T00:12:54;43.90;;;20.17;;
30000;SDS011;16845;48.670;9.000;2024-01-10T00:15:20;51.45;;;20.95;;
30000;SDS011;16845;48.670;9.000;2024-01-10T00:17:47;42.40;;;19.75;;
30000;SDS011;16845;48.670;9.000;2024-01-10T00:20:14;44.08;;;20.40;;
30000;SDS011;16845;48.670;9.000;2024-01-10T00:22:40;46.83;;;20.50;;
30000;SDS011;16845;48.670;9.000;2024-01-10T00:25:07;40.47;;;20.92;;
30000;SDS011;16845;48.670;9.000;2024-01-10T00:30:02;44.88;;;20.25;;
30000;SDS011;16845;48.670;9.000;2024-01-10T00:32:29;41.30;;;20.33;;
30000;SDS011;16845;48.670;9.000;2024-01-10T00:34:56;39.65;;;19.92;;
30000;SDS011;16845;48.670;9.000;2024-01-10T00:37:22;46.67;;;20.48;;
30000;SDS011;16845;48.670;9.000;2024-01-10T00:39:49;42.75;;;20.20;;
30000;SDS011;16845;48.670;9.000;2024-01-10T00:42:15;44.30;;;21.08;;
30000;SDS011;16845;48.670;9.000;2024-01-10T00:44:43;35.92;;;19.27;;
30000;SDS011;16845;48.670;9.000;2024-01-10T00:47:10;38.55;;;19.50;;
30000;SDS011;16845;48.670;9.000;2024-01-10T00:49:37;43.75;;;19.75;;
30000;SDS011;16845;48.670;9.000;2024-01-10T00:52:04;41.90;;;20.25;;
30000;SDS011;16845;48.670;9.000;2024-01-10T00:54:30;38.92;;;17.35;;
30000;SDS011;16845;48.670;9.000;2024-01-10T00:56:57;38.20;;;19.65;;
30000;SDS011;16845;48.670;9.000;2024-01-10T00:59:23;42.88;;;19.83;;
30000;SDS011;16845;48.670;9.000;2024-01-10T01:01:51;40.95;;;20.70;;
30000;SDS011;16845;48.670;9.000;2024-01-10T01:04:18;38.08;;;19.83;;
30000;SDS011;16845;48.670;9.000;2024-01-10T01:06:44;41.15;;;19.90;;
30000;SDS011;16845;48.670;9.000;2024-01-10T01:09:11;42.00;;;20.60;;
30000;SDS011;16845;48.670;9.000;2024-01-10T01:11:37;37.75;;;20.10;;
30000;SDS011;16845;48.670;9.000;2024-01-10T01:14:04;45.15;;;22.02;;
30000;SDS011;16845;48.670;9.000;2024-01-10T01:16:30;43.22;;;21.30;;
30000;SDS011;16845;48.670;9.000;2024-01-10T01:18:58;45.92;;;20.92;;
30000;SDS011;16845;48.670;9.000;2024-01-10T01:21:25;43.03;;;20.33;;
30000;SDS011;16845;48.670;9.000;2024-01-10T01:23:51;39.97;;;19.70;;
30000;SDS011;16845;48.670;9.000;2024-01-10T01:26:18;36.05;;;18.50;;
30000;SDS011;16845;48.670;9.000;2024-01-10T01:28:44;39.95;;;19.20;;
30000;SDS011;16845;48.670;9.000;2024-01-10T01:31:11;44.42;;;20.42;;
30000;SDS011;16845;48.670;9.000;2024-01-10T01:33:37;38.67;;;19.13;;
30000;SDS011;16845;48.670;9.000;2024-01-10T01:36:06;41.08;;;18.77;;
30000;SDS011;16845;48.670;9.000;2024-01-10T01:38:32;41.03;;;20.83;;
30000;SDS011;16845;48.670;9.000;2024-01-10T01:40:59;41.60;;;21.85;;
30000;SDS011;16845;48.670;9.000;2024-01-10T01:43:26;38.83;;;20.95;;
30000;SDS011;16845;48.670;9.000;2024-01-10T01:45:53;37.05;;;18.60;;
30000;SDS011;16845;48.670;9.000;2024-01-10T01:48:21;45.42;;;20.38;;
30000;SDS011;16845;48.670;9.000;2024-01-10T01:50:50;36.38;;;19.23;;
30000;SDS011;16845;48.670;9.000;2024-01-10T01:53:22;41.22;;;19.00;;
30000;SDS011;16845;48.670;9.000;2024-01-10T01:55:48;39.30;;;20.17;;
30000;SDS011;16845;48.670;9.000;2024-01-10T01:58:16;34.42;;;17.15;;
30000;SDS011;16845;48.670;9.000;2024-01-10T02:00:43;35.03;;;16.73;;
30000;SDS011;16845;48.670;9.000;2024-01-10T02:05:36;28.85;;;14.95;;
30000;SDS011;16845;48.670;9.000;2024-01-10T02:08:04;30.15;;;14.60;;
30000;SDS011;16845;48.670;9.000;2024-01-10T02:10:32;35.33;;;16.70;;
30000;SDS011;16845;48.670;9.000;2024-01-10T02:12:59;31.13;;;15.43;;
30000;SDS011;16845;48.670;9.000;2024-01-10T02:15:25;29.02;;;15.65;;
30000;SDS011;16845;48.670;9.000;2024-01-10T02:17:52;38.40;;;16.48;;
30000;SDS011;16845;48.670;9.000;2024-01-10T02:20:19;27.58;;;14.77;;
30000;SDS011;16845;48.670;9.000;2024-01-10T02:25:14;31.65;;;15.07;;
30000;SDS011;16845;48.670;9.000;2024-01-10T02:27:41;30.08;;;15.38;;
30000;SDS011;16845;48.670;9.000;2024-01-10T02:30:08;33.25;;;16.15;;
30000;SDS011;16845;48.670;9.000;2024-01-10T02:32:35;41.75;;;16.38;;
30000;SDS011;16845;48.670;9.000;2024-01-10T02:35:02;34.70;;;16.05;;
30000;SDS011;16845;48.670;9.000;2024-01-10T02:37:29;30.05;;;15.25;;
30000;SDS011;16845;48.670;9.000;2024-01-10T02:39:55;30.98;;;14.32;;
30000;SDS011;16845;48.670;9.000;2024-01-10T02:42:23;28.42;;;14.95;;
30000;SDS011;16845;48.670;9.000;2024-01-10T02:44:49;30.98;;;15.88;;
30000;SDS011;16845;48.670;9.000;2024-01-10T02:47:16;34.17;;;16.67;;
30000;SDS011;16845;48.670;9.000;2024-01-10T02:49:43;31.08;;;16.02;;
30000;SDS011;16845;48.670;9.000;2024-01-10T02:52:09;31.55;;;15.75;;
30000;SDS011;16845;48.670;9.000;2024-01-10T02:54:36;37.90;;;16.92;;
30000;SDS011;16845;48.670;9.000;2024-01-10T02:57:02;30.30;;;16.00;;
30000;SDS011;16845;48.670;9.000;2024-01-10T02:59:30;37.63;;;18.17;;
30000;SDS011;16845;48.670;9.000;2024-01-10T03:01:57;34.50;;;16.17;;
30000;SDS011;16845;48.670;9.000;2024-01-10T03:04:23;32.33;;;14.35;;
30000;SDS011;16845;48.670;9.000;2024-01-10T03:06:50;31.58;;;15.50;;
30000;SDS011;16845;48.670;9.000;2024-01-10T03:09:16;37.13;;;16.02;;
30000;SDS011;16845;48.670;9.000;2024-01-10T03:11:43;29.92;;;15.52;;
30000;SDS011;16845;48.670;9.000;2024-01-10T03:14:10;33.20;;;15.75;;
30000;SDS011;16845;48.670;9.000;2024-01-10T03:16:39;33.22;;;15.45;;
30000;SDS011;16845;48.670;9.000;2024-01-10T03:19:05;29.88;;;15.38;;
30000;SDS011;16845;48.670;9.000;2024-01-10T03:21:32;33.42;;;16.77;;
30000;SDS011;16845;48.670;9.000;2024-01-10T03:23:59;38.83;;;16.45;;
30000;SDS011;16845;48.670;9.000;2024-01-10T03:26:27;35.28;;;16.50;;
30000;SDS011;16845;48.670;9.000;2024-01-10T03:28:54;31.27;;;17.02;;
30000;SDS011;16845;48.670;9.000;2024-01-10T03:31:20;34.05;;;15.65;;
30000;SDS011;16845;48.670;9.000;2024-01-10T03:33:48;25.40;;;12.75;;
30000;SDS011;16845;48.670;9.000;2024-01-10T03:36:15;33.33;;;16.00;;
30000;SDS011;16845;48.670;9.000;2024-01-10T03:38:43;32.53;;;16.83;;
30000;SDS011;16845;48.670;9.000;2024-01-10T03:41:12;32.60;;;15.85;;
30000;SDS011;16845;48.670;9.000;2024-01-10T03:43:39;34.58;;;16.50;;
30000;SDS011;16845;48.670;9.000;2024-01-10T03:46:06;28.20;;;12.90;;
30000;SDS011;16845;48.670;9.000;2024-01-10T03:48:32;39.75;;;16.77;;
30000;SDS011;16845;48.670;9.000;2024-01-10T03:51:00;40.08;;;18.13;;
30000;SDS011;16845;48.670;9.000;2024-01-10T03:53:26;34.45;;;16.38;;
30000;SDS011;16845;48.670;9.000;2024-01-10T03:55:53;31.92;;;15.98;;
30000;SDS011;16845;48.670;9.000;2024-01-10T03:58:19;34.10;;;17.13;;
30000;SDS011;16845;48.670;9.000;2024-01-10T04:00:46;33.92;;;16.88;;
30000;SDS011;16845;48.670;9.000;2024-01-10T04:03:13;31.17;;;16.10;;
30000;SDS011;16845;48.670;9.000;2024-01-10T04:05:40;33.10;;;17.83;;
30000;SDS011;16845;48.670;9.000;2024-01-10T04:08:08;36.00;;;16.38;;
30000;SDS011;16845;48.670;9.000;2024-01-10T04:10:35;36.70;;;16.60;;
30000;SDS011;16845;48.670;9.000;2024-01-10T04:13:01;32.33;;;16.13;;
30000;SDS011;16845;48.670;9.000;2024-01-10T04:15:28;37.50;;;17.40;;
30000;SDS011;16845;48.670;9.000;2024-01-10T04:17:54;33.72;;;16.42;;
30000;SDS011;16845;48.670;9.000;2024-01-10T04:20:21;30.48;;;16.85;;
30000;SDS011;16845;48.670;9.000;2024-01-10T04:22:48;33.83;;;17.60;;
30000;SDS011;16845;48.670;9.000;2024-01-10T04:25:15;36.28;;;18.67;;
30000;SDS011;16845;48.670;9.000;2024-01-10T04:27:42;37.25;;;19.80;;
30000;SDS011;16845;48.670;9.000;2024-01-10T04:30:09;32.83;;;17.75;;
30000;SDS011;16845;48.670;9.000;2024-01-10T04:32:37;34.78;;;17.02;;
30000;SDS011;16845;48.670;9.000;2024-01-10T04:35:03;35.33;;;16.92;;
30000;SDS011;16845;48.670;9.000;2024-01-10T04:37:30;36.95;;;18.67;;
30000;SDS011;16845;48.670;9.000;2024-01-10T04:39:57;38.45;;;17.40;;
30000;SDS011;16845;48.670;9.000;2024-01-10T04:42:25;39.97;;;18.52;;
30000;SDS011;16845;48.670;9.000;2024-01-10T04:44:51;35.35;;;17.55;;
30000;SDS011;16845;48.670;9.000;2024-01-10T04:47:18;35.13;;;17.40;;
30000;SDS011;16845;48.670;9.000;2024-01-10T04:49:44;32.97;;;16.60;;
30000;SDS011;16845;48.670;9.000;2024-01-10T04:52:11;37.35;;;17.20;;
30000;SDS011;16845;48.670;9.000;2024-01-10T04:54:37;39.38;;;17.92;;
30000;SDS011;16845;48.670;9.000;2024-01-10T04:57:04;35.10;;;18.13;;
30000;SDS011;16845;48.670;9.000;2024-01-10T04:59:32;35.90;;;17.00;;
30000;SDS011;16845;48.670;9.000;2024-01-10T05:01:58;29.50;;;16.73;;
30000;SDS011;16845;48.670;9.000;2024-01-10T05:04:25;39.38;;;16.45;;
30000;SDS011;16845;48.670;9.000;2024-01-10T05:06:52;36.78;;;18.23;;
30000;SDS011;16845;48.670;9.000;2024-01-10T05:09:18;37.83;;;17.05;;
30000;SDS011;16845;48.670;9.000;2024-01-10T05:11:45;39.08;;;18.10;;
30000;SDS011;16845;48.670;9.000;2024-01-10T05:14:11;35.40;;;18.60;;
30000;SDS011;16845;48.670;9.000;2024-01-10T05:16:39;32.35;;;16.77;;
30000;SDS011;16845;48.670;9.000;2024-01-10T05:19:06;34.55;;;17.92;;
30000;SDS011;16845;48.670;9.000;2024-01-10T05:21:32;34.42;;;18.58;;
30000;SDS011;16845;48.670;9.000;2024-01-10T05:23:59;37.17;;;17.77;;
30000;SDS011;16845;48.670;9.000;2024-01-10T05:26:26;34.80;;;17.80;;
30000;SDS011;16845;48.670;9.000;2024-01-10T05:28:53;36.58;;;18.58;;
30000;SDS011;16845;48.670;9.000;2024-01-10T05:31:19;43.75;;;18.63;;
30000;SDS011;16845;48.670;9.000;2024-01-10T05:33:47;35.72;;;19.83;;
30000;SDS011;16845;48.670;9.000;2024-01-10T05:36:14;33.58;;;18.77;;
30000;SDS011;16845;48.670;9.000;2024-01-10T05:38:40;32.30;;;17.35;;
30000;SDS011;16845;48.670;9.000;2024-01-10T05:41:07;36.67;;;18.27;;
30000;SDS011;16845;48.670;9.000;2024-01-10T05:43:33;38.22;;;18.05;;
30000;SDS011;16845;48.670;9.000;2024-01-10T05:46:00;39.83;;;18.33;;
30000;SDS011;16845;48.670;9.000;2024-01-10T05:48:26;38.45;;;17.98;;
30000;SDS011;16845;48.670;9.000;2024-01-10T05:50:54;34.38;;;17.83;;
30000;SDS011;16845;48.670;9.000;2024-01-10T05:53:24;35.78;;;17.92;;
30000;SDS011;16845;48.670;9.000;2024-01-10T05:55:50;48.92;;;20.30;;
30000;SDS011;16845;48.670;9.000;2024-01-10T05:58:17;37.75;;;18.75;;
30000;SDS011;16845;48.670;9.000;2024-01-10T06:00:43;36.30;;;19.60;;
30000;SDS011;16845;48.670;9.000;2024-01-10T06:03:10;43.08;;;19.10;;
30000;SDS011;16845;48.670;9.000;2024-01-10T06:05:36;35.72;;;17.67;;
30000;SDS011;16845;48.670;9.000;2024-01-10T06:08:05;40.60;;;18.60;;
30000;SDS011;16845;48.670;9.000;2024-01-10T06:10:32;40.40;;;19.80;;
30000;SDS011;16845;48.670;9.000;2024-01-10T06:13:02;38.05;;;19.05;;
30000;SDS011;16845;48.670;9.000;2024-01-10T06:15:29;41.50;;;18.35;;
30000;SDS011;16845;48.670;9.000;2024-01-10T06:17:56;41.15;;;19.48;;
30000;SDS011;16845;48.670;9.000;2024-01-10T06:20:22;43.28;;;19.20;;
30000;SDS011;16845;48.670;9.000;2024-01-10T06:22:49;39.15;;;18.65;;
30000;SDS011;16845;48.670;9.000;2024-01-10T06:25:17;37.90;;;17.73;;
30000;SDS011;16845;48.670;9.000;2024-01-10T06:27:43;40.22;;;18.08;;
30000;SDS011;16845;48.670;9.000;2024-01-10T06:30:10;55.50;;;20.35;;
30000;SDS011;16845;48.670;9.000;2024-01-10T06:32:37;39.95;;;19.17;;
30000;SDS011;16845;48.670;9.000;2024-01-10T06:35:04;35.45;;;18.42;;
30000;SDS011;16845;48.670;9.000;2024-01-10T06:37:31;41.63;;;19.38;;
30000;SDS011;16845;48.670;9.000;2024-01-10T06:40:00;41.30;;;20.38;;
30000;SDS011;16845;48.670;9.000;2024-01-10T06:42:28;43.60;;;21.10;;
30000;SDS011;16845;48.670;9.000;2024-01-10T06:44:55;39.92;;;18.77;;
30000;SDS011;16845;48.670;9.000;2024-01-10T06:47:21;45.05;;;21.58;;
30000;SDS011;16845;48.670;9.000;2024-01-10T06:49:48;42.25;;;19.00;;
30000;SDS011;16845;48.670;9.000;2024-01-10T06:52:15;43.03;;;21.55;;
30000;SDS011;16845;48.670;9.000;2024-01-10T06:54:41;40.60;;;20.35;;
30000;SDS011;16845;48.670;9.000;2024-01-10T06:57:08;42.42;;;20.80;;
30000;SDS011;16845;48.670;9.000;2024-01-10T06:59:35;43.05;;;20.38;;
30000;SDS011;16845;48.670;9.000;2024-01-10T07:02:02;42.05;;;21.33;;
30000;SDS011;16845;48.670;9.000;2024-01-10T07:04:29;38.28;;;19.83;;
30000;SDS011;16845;48.670;9.000;2024-01-10T07:06:55;44.35;;;21.55;;
30000;SDS011;16845;48.670;9.000;2024-01-10T07:09:22;43.15;;;21.70;;
30000;SDS011;16845;48.670;9.000;2024-01-10T07:11:49;39.88;;;20.33;;
30000;SDS011;16845;48.670;9.000;2024-01-10T07:14:15;44.35;;;20.20;;
30000;SDS011;16845;48.670;9.000;2024-01-10T07:16:43;42.25;;;21.60;;
30000;SDS011;16845;48.670;9.000;2024-01-10T07:19:10;37.97;;;19.52;;
30000;SDS011;16845;48.670;9.000;2024-01-10T07:21:37;43.50;;;20.73;;
30000;SDS011;16845;48.670;9.000;2024-01-10T07:24:03;42.80;;;22.85;;
30000;SDS011;16845;48.670;9.000;2024-01-10T07:26:30;40.22;;;20.75;;
30000;SDS011;16845;48.670;9.000;2024-01-10T07:28:57;42.55;;;20.52;;
30000;SDS011;16845;48.670;9.000;2024-01-10T07:31:23;48.85;;;21.73;;
30000;SDS011;16845;48.670;9.000;2024-01-10T07:33:51;52.33;;;23.52;;
30000;SDS011;16845;48.670;9.000;2024-01-10T07:36:18;48.80;;;23.73;;
30000;SDS011;16845;48.670;9.000;2024-01-10T07:38:44;38.13;;;20.58;;
30000;SDS011;16845;48.670;9.000;2024-01-10T07:41:10;45.55;;;21.05;;
30000;SDS011;16845;48.670;9.000;2024-01-10T07:43:37;39.33;;;19.20;;
30000;SDS011;16845;48.670;9.000;2024-01-10T07:46:04;49.55;;;22.65;;
30000;SDS011;16845;48.670;9.000;2024-01-10T07:48:30;39.63;;;21.17;;
30000;SDS011;16845;48.670;9.000;2024-01-10T07:50:59;39.25;;;19.52;;
30000;SDS011;16845;48.670;9.000;2024-01-10T07:53:25;41.90;;;22.38;;
30000;SDS011;16845;48.670;9.000;2024-01-10T07:55:52;44.75;;;22.52;;
30000;SDS011;16845;48.670;9.000;2024-01-10T07:58:18;46.70;;;20.48;;
30000;SDS011;16845;48.670;9.000;2024-01-10T08:00:45;42.88;;;21.65;;
30000;SDS011;16845;48.670;9.000;2024-01-10T08:03:11;49.22;;;24.00;;
30000;SDS011;16845;48.670;9.000;2024-01-10T08:05:38;50.08;;;22.48;;
30000;SDS011;16845;48.670;9.000;2024-01-10T08:08:06;46.47;;;23.13;;
30000;SDS011;16845;48.670;9.000;2024-01-10T08:10:33;44.80;;;21.40;;
30000;SDS011;16845;48.670;9.000;2024-01-10T08:13:02;47.17;;;22.33;;
30000;SDS011;16845;48.670;9.000;2024-01-10T08:15:28;49.90;;;22.92;;
30000;SDS011;16845;48.670;9.000;2024-01-10T08:17:55;47.05;;;21.35;;
30000;SDS011;16845;48.670;9.000;2024-01-10T08:20:22;46.10;;;23.08;;
30000;SDS011;16845;48.670;9.000;2024-01-10T08:25:16;48.50;;;21.67;;
30000;SDS011;16845;48.670;9.000;2024-01-10T08:27:43;47.78;;;22.70;;
30000;SDS011;16845;48.670;9.000;2024-01-10T08:30:11;45.05;;;22.52;;
30000;SDS011;16845;48.670;9.000;2024-01-10T08:35:05;47.10;;;23.30;;
30000;SDS011;16845;48.670;9.000;2024-01-10T08:39:58;54.88;;;23.80;;
30000;SDS011;16845;48.670;9.000;2024-01-10T08:42:26;43.03;;;21.48;;
30000;SDS011;16845;48.670;9.000;2024-01-10T08:44:52;50.72;;;25.25;;
30000;SDS011;16845;48.670;9.000;2024-01-10T08:47:19;46.78;;;23.60;;
30000;SDS011;16845;48.670;9.000;2024-01-10T08:49:46;42.85;;;24.10;;
30000;SDS011;16845;48.670;9.000;2024-01-10T08:52:12;48.08;;;23.25;;
30000;SDS011;16845;48.670;9.000;2024-01-10T08:54:39;45.08;;;23.67;;
30000;SDS011;16845;48.670;9.000;2024-01-10T08:57:05;46.55;;;23.38;;
30000;SDS011;16845;48.670;9.000;2024-01-10T08:59:33;46.75;;;25.15;;
30000;SDS011;16845;48.670;9.000;2024-01-10T09:02:00;42.13;;;22.13;;
30000;SDS011;16845;48.670;9.000;2024-01-10T09:04:27;43.85;;;21.75;;
30000;SDS011;16845;48.670;9.000;2024-01-10T09:06:53;44.78;;;22.33;;
30000;SDS011;16845;48.670;9.000;2024-01-10T09:09:20;41.15;;;22.45;;
30000;SDS011;16845;48.670;9.000;2024-01-10T09:11:46;48.65;;;22.25;;
30000;SDS011;16845;48.670;9.000;2024-01-10T09:14:13;43.70;;;22.98;;
30000;SDS011;16845;48.670;9.000;2024-01-10T09:16:41;44.95;;;21.63;;
30000;SDS011;16845;48.670;9.000;2024-01-10T09:19:07;49.10;;;24.85;;
30000;SDS011;16845;48.670;9.000;2024-01-10T09:21:37;46.22;;;23.00;;
30000;SDS011;16845;48.670;9.000;2024-01-10T09:24:04;45.85;;;24.45;;
30000;SDS011;16845;48.670;9.000;2024-01-10T09:26:46;50.33;;;24.60;;
30000;SDS011;16845;48.670;9.000;2024-01-10T09:29:13;50.22;;;25.00;;
30000;SDS011;16845;48.670;9.000;2024-01-10T09:31:41;56.58;;;26.20;;
30000;SDS011;16845;48.670;9.000;2024-01-10T09:34:08;49.55;;;25.13;;
30000;SDS011;16845;48.670;9.000;2024-01-10T09:36:34;60.13;;;27.05;;
30000;SDS011;16845;48.670;9.000;2024-01-10T09:39:01;48.30;;;26.00;;
30000;SDS011;16845;48.670;9.000;2024-01-10T09:41:27;54.22;;;26.90;;
30000;SDS011;16845;48.670;9.000;2024-01-10T09:43:56;47.55;;;25.20;;
30000;SDS011;16845;48.670;9.000;2024-01-10T09:48:51;49.05;;;26.15;;
30000;SDS011;16845;48.670;9.000;2024-01-10T09:51:21;50.33;;;25.35;;
30000;SDS011;16845;48.670;9.000;2024-01-10T09:53:49;47.58;;;24.13;;
30000;SDS011;16845;48.670;9.000;2024-01-10T09:56:17;47.72;;;24.48;;
30000;SDS011;16845;48.670;9.000;2024-01-10T09:58:44;51.10;;;27.20;;
30000;SDS011;16845;48.670;9.000;2024-01-10T10:01:12;45.10;;;26.75;;
30000;SDS011;16845;48.670;9.000;2024-01-10T10:03:40;58.22;;;29.10;;
30000;SDS011;16845;48.670;9.000;2024-01-10T10:06:09;47.67;;;25.73;;
30000;SDS011;16845;48.670;9.000;2024-01-10T10:08:41;50.42;;;27.08;;
30000;SDS011;16845;48.670;9.000;2024-01-10T10:11:11;47.97;;;27.67;;
30000;SDS011;16845;48.670;9.000;2024-01-10T10:13:38;43.92;;;24.98;;
30000;SDS011;16845;48.670;9.000;2024-01-10T10:16:04;45.72;;;25.25;;
30000;SDS011;16845;48.670;9.000;2024-01-10T10:18:31;51.40;;;27.15;;
30000;SDS011;16845;48.670;9.000;2024-01-10T10:21:06;47.13;;;27.27;;
30000;SDS011;16845;48.670;9.000;2024-01-10T10:23:34;44.58;;;25.42;;
30000;SDS011;16845;48.670;9.000;2024-01-10T10:26:09;48.47;;;25.25;;
30000;SDS011;16845;48.670;9.000;2024-01-10T10:28:36;45.33;;;26.92;;
30000;SDS011;16845;48.670;9.000;2024-01-10T10:31:03;51.17;;;28.92;;
30000;SDS011;16845;48.670;9.000;2024-01-10T10:33:32;42.05;;;24.40;;
30000;SDS011;16845;48.670;9.000;2024-01-10T10:35:58;46.25;;;24.85;;
30000;SDS011;16845;48.670;9.000;2024-01-10T10:38:25;39.78;;;24.52;;
30000;SDS011;16845;48.670;9.000;2024-01-10T10:40:54;41.05;;;23.95;;
30000;SDS011;16845;48.670;9.000;2024-01-10T10:43:21;43.30;;;23.48;;
30000;SDS011;16845;48.670;9.000;2024-01-10T10:45:48;29.42;;;17.83;;
30000;SDS011;16845;48.670;9.000;2024-01-10T10:48:16;40.15;;;22.23;;
30000;SDS011;16845;48.670;9.000;2024-01-10T10:50:46;36.88;;;22.88;;
30000;SDS011;16845;48.670;9.000;2024-01-10T10:53:17;34.90;;;21.67;;
30000;SDS011;16845;48.670;9.000;2024-01-10T10:55:45;42.78;;;23.35;;
30000;SDS011;16845;48.670;9.000;2024-01-10T10:58:15;43.97;;;24.42;;
30000;SDS011;16845;48.670;9.000;2024-01-10T11:00:41;43.92;;;24.58;;
30000;SDS011;16845;48.670;9.000;2024-01-10T11:03:10;33.58;;;22.33;;
30000;SDS011;16845;48.670;9.000;2024-01-10T11:05:38;38.03;;;22.00;;
30000;SDS011;16845;48.670;9.000;2024-01-10T11:08:07;41.65;;;24.98;;
30000;SDS011;16845;48.670;9.000;2024-01-10T11:10:37;39.05;;;23.50;;
30000;SDS011;16845;48.670;9.000;2024-01-10T11:13:13;37.58;;;22.60;;
30000;SDS011;16845;48.670;9.000;2024-01-10T11:15:56;35.67;;;22.45;;
30000;SDS011;16845;48.670;9.000;2024-01-10T11:18:46;37.25;;;24.05;;
30000;SDS011;16845;48.670;9.000;2024-01-10T11:21:29;34.60;;;22.40;;
30000;SDS011;16845;48.670;9.000;2024-01-10T11:24:02;33.85;;;22.45;;
30000;SDS011;16845;48.670;9.000;2024-01-10T11:28:59;33.80;;;21.17;;
30000;SDS011;16845;48.670;9.000;2024-01-10T11:31:27;36.55;;;22.27;;
30000;SDS011;16845;48.670;9.000;2024-01-10T11:33:55;34.92;;;22.63;;
30000;SDS011;16845;48.670;9.000;2024-01-10T11:36:22;37.38;;;23.05;;
30000;SDS011;16845;48.670;9.000;2024-01-10T11:38:49;40.37;;;22.47;;
30000;SDS011;16845;48.670;9.000;2024-01-10T11:41:20;35.22;;;23.02;;
30000;SDS011;16845;48.670;9.000;2024-01-10T11:46:49;31.17;;;20.42;;
30000;SDS011;16845;48.670;9.000;2024-01-10T11:49:18;38.25;;;23.73;;
30000;SDS011;16845;48.670;9.000;2024-01-10T11:51:47;40.50;;;23.52;;
30000;SDS011;16845;48.670;9.000;2024-01-10T11:57:01;43.90;;;23.80;;
30000;SDS011;16845;48.670;9.000;2024-01-10T11:59:27;37.87;;;23.27;;
30000;SDS011;16845;48.670;9.000;2024-01-10T12:04:23;39.42;;;24.30;;
30000;SDS011;16845;48.670;9.000;2024-01-10T12:07:03;38.50;;;23.77;;
30000;SDS011;16845;48.670;9.000;2024-01-10T12:09:30;34.90;;;23.83;;
30000;SDS011;16845;48.670;9.000;2024-01-10T12:11:58;42.20;;;23.50;;
30000;SDS011;16845;48.670;9.000;2024-01-10T12:14:24;38.92;;;23.48;;
30000;SDS011;16845;48.670;9.000;2024-01-10T12:16:51;34.10;;;22.83;;
30000;SDS011;16845;48.670;9.000;2024-01-10T12:19:19;36.17;;;23.95;;
30000;SDS011;16845;48.670;9.000;2024-01-10T12:21:45;35.88;;;22.70;;
30000;SDS011;16845;48.670;9.000;2024-01-10T12:24:12;35.05;;;23.50;;
30000;SDS011;16845;48.670;9.000;2024-01-10T12:26:43;35.08;;;23.05;;
30000;SDS011;16845;48.670;9.000;2024-01-10T12:29:09;37.80;;;23.13;;
30000;SDS011;16845;48.670;9.000;2024-01-10T12:31:36;31.47;;;21.93;;
30000;SDS011;16845;48.670;9.000;2024-01-10T12:34:03;32.00;;;21.88;;
30000;SDS011;16845;48.670;9.000;2024-01-10T12:36:35;30.48;;;20.88;;
30000;SDS011;16845;48.670;9.000;2024-01-10T12:39:01;33.83;;;23.23;;
30000;SDS011;16845;48.670;9.000;2024-01-10T12:41:28;35.70;;;21.55;;
30000;SDS011;16845;48.670;9.000;2024-01-10T12:43:55;33.93;;;22.07;;
30000;SDS011;16845;48.670;9.000;2024-01-10T12:46:22;32.47;;;22.58;;
30000;SDS011;16845;48.670;9.000;2024-01-10T12:48:57;36.28;;;21.85;;
30000;SDS011;16845;48.670;9.000;2024-01-10T12:51:24;36.83;;;22.20;;
30000;SDS011;16845;48.670;9.000;2024-01-10T12:53:52;31.63;;;21.43;;
30000;SDS011;16845;48.670;9.000;2024-01-10T12:56:19;32.72;;;21.25;;
30000;SDS011;16845;48.670;9.000;2024-01-10T12:58:45;28.77;;;20.83;;
30000;SDS011;16845;48.670;9.000;2024-01-10T13:01:12;29.80;;;21.33;;
30000;SDS011;16845;48.670;9.000;2024-01-10T13:03:38;34.38;;;22.10;;
30000;SDS011;16845;48.670;9.000;2024-01-10T13:06:05;32.78;;;23.02;;
30000;SDS011;16845;48.670;9.000;2024-01-10T13:08:32;30.25;;;21.88;;
30000;SDS011;16845;48.670;9.000;2024-01-10T13:11:01;32.00;;;21.00;;
30000;SDS011;16845;48.670;9.000;2024-01-10T13:13:28;29.35;;;20.63;;
30000;SDS011;16845;48.670;9.000;2024-01-10T13:15:54;30.83;;;20.15;;
30000;SDS011;16845;48.670;9.000;2024-01-10T13:18:21;32.33;;;21.52;;
30000;SDS011;16845;48.670;9.000;2024-01-10T13:20:47;30.40;;;21.33;;
30000;SDS011;16845;48.670;9.000;2024-01-10T13:23:14;27.75;;;20.30;;
30000;SDS011;16845;48.670;9.000;2024-01-10T13:25:40;30.02;;;20.67;;
30000;SDS011;16845;48.670;9.000;2024-01-10T13:28:09;29.90;;;20.05;;
30000;SDS011;16845;48.670;9.000;2024-01-10T13:30:35;32.88;;;21.80;;
30000;SDS011;16845;48.670;9.000;2024-01-10T13:33:02;31.17;;;19.67;;
30000;SDS011;16845;48.670;9.000;2024-01-10T13:35:29;37.22;;;23.05;;
30000;SDS011;16845;48.670;9.000;2024-01-10T13:37:55;34.87;;;21.53;;
30000;SDS011;16845;48.670;9.000;2024-01-10T13:40:22;31.45;;;20.35;;
30000;SDS011;16845;48.670;9.000;2024-01-10T13:42:48;32.10;;;20.17;;
30000;SDS011;16845;48.670;9.000;2024-01-10T13:45:16;31.30;;;19.25;;
30000;SDS011;16845;48.670;9.000;2024-01-10T13:47:43;33.05;;;20.42;;
30000;SDS011;16845;48.670;9.000;2024-01-10T13:50:09;33.90;;;20.87;;
30000;SDS011;16845;48.670;9.000;2024-01-10T13:52:36;32.42;;;20.08;;
30000;SDS011;16845;48.670;9.000;2024-01-10T13:55:03;35.45;;;21.83;;
30000;SDS011;16845;48.670;9.000;2024-01-10T13:57:30;31.60;;;20.15;;
30000;SDS011;16845;48.670;9.000;2024-01-10T13:59:58;33.13;;;19.38;;
30000;SDS011;16845;48.670;9.000;2024-01-10T14:02:26;33.05;;;20.05;;
30000;SDS011;16845;48.670;9.000;2024-01-10T14:04:53;33.78;;;19.90;;
30000;SDS011;16845;48.670;9.000;2024-01-10T14:07:20;31.77;;;19.87;;
30000;SDS011;16845;48.670;9.000;2024-01-10T14:09:46;31.23;;;20.47;;
30000;SDS011;16845;48.670;9.000;2024-01-10T14:12:13;32.07;;;20.40;;
30000;SDS011;16845;48.670;9.000;2024-01-10T14:14:39;34.38;;;19.88;;
30000;SDS011;16845;48.670;9.000;2024-01-10T14:17:06;33.38;;;21.02;;
30000;SDS011;16845;48.670;9.000;2024-01-10T14:19:34;35.63;;;20.40;;
30000;SDS011;16845;48.670;9.000;2024-01-10T14:22:00;33.30;;;19.58;;
30000;SDS011;16845;48.670;9.000;2024-01-10T14:24:39;34.58;;;19.63;;
30000;SDS011;16845;48.670;9.000;2024-01-10T14:27:06;35.80;;;19.10;;
30000;SDS011;16845;48.670;9.000;2024-01-10T14:29:34;34.97;;;20.13;;
30000;SDS011;16845;48.670;9.000;2024-01-10T14:32:00;38.20;;;21.37;;
30000;SDS011;16845;48.670;9.000;2024-01-10T14:34:44;33.75;;;20.73;;
30000;SDS011;16845;48.670;9.000;2024-01-10T14:37:11;35.60;;;19.95;;
30000;SDS011;16845;48.670;9.000;2024-01-10T14:39:37;36.28;;;21.98;;
30000;SDS011;16845;48.670;9.000;2024-01-10T14:42:04;35.50;;;19.73;;
30000;SDS011;16845;48.670;9.000;2024-01-10T14:44:32;40.58;;;20.17;;
30000;SDS011;16845;48.670;9.000;2024-01-10T14:46:58;35.97;;;19.25;;
30000;SDS011;16845;48.670;9.000;2024-01-10T14:49:35;40.20;;;21.42;;